Time;durP1;ratioP1;P1;durP2;ratioP2;P2;SDS_P1;SDS_P2;PMS_P1;PMS_P2;Temp;Humidity;BMP_temperature;BMP_pressure;BME280_temperature;BME280_humidity;BME280_pressure;Samples;Min_cycle;Max_cycle;Signal;HPM_P1;HPM_P2
2023/01/24 00:01:57;;;;;;;33.6;19.1;;;;;;;2.4;93.6;100570;;;;
2023/01/24 00:11:58;;;;;;;33.6;19.1;;;;;;;2.4;93.6;100560;;;;
2023/01/24 00:22:58;;;;;;;28.5;16.8;;;;;;;2.4;93.5;100560;;;;
2023/01/24 00:33:57;;;;;;;28.5;16.8;;;;;;;2.4;93.6;100570;;;;
2023/01/24 00:43:57;;;;;;;28.5;16.8;;;;;;;2.4;93.6;100580;;;;
2023/01/24 00:53:58;;;;;;;30.3;17.3;;;;;;;2.4;93.5;100580;;;;
2023/01/24 01:03:57;;;;;;;30.3;17.3;;;;;;;2.5;93.5;100570;;;;
2023/01/24 01:13:58;;;;;;;30.3;17.3;;;;;;;2.5;93.4;100580;;;;
2023/01/24 01:23:57;;;;;;;24.2;15.2;;;;;;;2.6;93.4;100580;;;;
2023/01/24 01:34:59;;;;;;;24.2;15.2;;;;;;;2.6;93.4;100590;;;;
2023/01/24 01:44:57;;;;;;;24.2;15.2;;;;;;;2.5;93.3;100590;;;;
2023/01/24 01:55:57;;;;;;;25.5;15.3;;;;;;;2.5;93.3;100600;;;;
2023/01/24 02:05:58;;;;;;;25.5;15.3;;;;;;;2.5;93.3;100590;;;;
2023/01/24 02:16:58;;;;;;;25.5;15.3;;;;;;;2.4;93.3;100590;;;;
2023/01/24 02:27:58;;;;;;;22.4;14.4;;;;;;;2.5;93.4;100590;;;;
2023/01/24 02:37:57;;;;;;;22.4;14.4;;;;;;;2.5;93.3;100580;;;;
2023/01/24 02:47:57;;;;;;;22.4;14.4;;;;;;;2.4;93.3;100580;;;;
2023/01/24 02:58:13;;;;;;;19.5;11.4;;;;;;;2.4;93.4;100580;;;;
2023/01/24 03:07:58;;;;;;;19.5;11.4;;;;;;;2.5;93.3;100590;;;;
2023/01/24 03:40:58;;;;;;;14.6;8.4;;;;;;;2.5;93.1;100600;;;;
2023/01/24 04:00:58;;;;;;;15.4;8.6;;;;;;;2.5;93.1;100600;;;;
2023/01/24 04:11:58;;;;;;;15.4;8.6;;;;;;;2.4;93.2;100600;;;;
2023/01/24 04:21:58;;;;;;;15.8;8.7;;;;;;;2.4;93.4;100590;;;;
2023/01/24 04:31:58;;;;;;;15.8;8.7;;;;;;;2.4;93.4;100590;;;;
2023/01/24 04:42:58;;;;;;;15.8;8.7;;;;;;;2.4;93.4;100590;;;;
2023/01/24 04:53:58;;;;;;;16.2;9.5;;;;;;;2.4;93.4;100600;;;;
2023/01/24 05:04:58;;;;;;;16.2;9.5;;;;;;;2.4;93.3;100590;;;;
2023/01/24 05:15:58;;;;;;;16.2;9.5;;;;;;;2.4;93.2;100610;;;;
2023/01/24 05:25:58;;;;;;;17.1;7.6;;;;;;;2.4;93.1;100610;;;;
2023/01/24 05:36:58;;;;;;;17.1;7.6;;;;;;;2.4;93;100610;;;;
2023/01/24 05:46:58;;;;;;;17.1;7.6;;;;;;;2.4;93;100620;;;;
2023/01/24 05:57:58;;;;;;;15.9;8.9;;;;;;;2.4;92.7;100630;;;;
2023/01/24 06:07:58;;;;;;;15.9;8.9;;;;;;;2.3;92.1;100630;;;;
2023/01/24 06:17:58;;;;;;;15;6.3;;;;;;;2.4;91.9;100640;;;;
2023/01/24 06:27:58;;;;;;;15;6.3;;;;;;;2.4;91.8;100650;;;;
2023/01/24 06:37:58;;;;;;;15;6.3;;;;;;;2.4;91.8;100660;;;;
2023/01/24 06:48:58;;;;;;;12.6;6.9;;;;;;;2.5;91.7;100670;;;;
2023/01/24 06:58:58;;;;;;;12.6;6.9;;;;;;;2.6;91.6;100670;;;;
2023/01/24 07:09:58;;;;;;;12.6;6.9;;;;;;;2.6;91.4;100680;;;;
2023/01/24 07:20:58;;;;;;;14.3;8;;;;;;;2.7;91.3;100690;;;;
2023/01/24 07:30:58;;;;;;;14.3;8;;;;;;;2.8;91.4;100700;;;;
2023/01/24 07:41:58;;;;;;;14.3;8;;;;;;;2.9;91.3;100710;;;;
2023/01/24 07:51:58;;;;;;;20.4;11.4;;;;;;;2.9;91.4;100710;;;;
2023/01/24 08:02:58;;;;;;;20.4;11.4;;;;;;;2.9;91.6;100730;;;;
2023/01/24 08:12:58;;;;;;;20.4;11.4;;;;;;;3.1;91.5;100730;;;;
2023/01/24 08:22:58;;;;;;;16.6;9.9;;;;;;;3;91.5;100730;;;;
2023/01/24 08:32:58;;;;;;;16.6;9.9;;;;;;;3;91.4;100740;;;;
2023/01/24 08:43:58;;;;;;;16.6;9.9;;;;;;;3;91.4;100750;;;;
2023/01/24 08:53:58;;;;;;;15.5;8.1;;;;;;;3;91.4;100750;;;;
2023/01/24 09:04:58;;;;;;;15.5;8.1;;;;;;;3;91.4;100750;;;;
2023/01/24 09:15:58;;;;;;;15.5;8.1;;;;;;;2.9;91.5;100760;;;;
2023/01/24 09:25:58;;;;;;;18.4;9.7;;;;;;;2.9;91.3;100770;;;;
2023/01/24 09:35:58;;;;;;;18.4;9.7;;;;;;;3;91;100760;;;;
2023/01/24 09:46:58;;;;;;;18.4;9.7;;;;;;;3.1;90.4;100760;;;;
2023/01/24 09:56:58;;;;;;;22.5;12.2;;;;;;;3.2;89.9;100750;;;;
2023/01/24 10:06:58;;;;;;;22.5;12.2;;;;;;;3.6;89.7;100750;;;;
2023/01/24 10:17:58;;;;;;;19;11.6;;;;;;;3.9;88.6;100740;;;;
2023/01/24 10:27:58;;;;;;;19;11.6;;;;;;;4;88.3;100740;;;;
2023/01/24 10:37:58;;;;;;;19;11.6;;;;;;;3.8;88.3;100730;;;;
2023/01/24 10:48:58;;;;;;;25.6;12.9;;;;;;;3.8;88.4;100740;;;;
2023/01/24 10:58:59;;;;;;;25.6;12.9;;;;;;;3.6;88.7;100730;;;;
2023/01/24 11:08:58;;;;;;;25.6;12.9;;;;;;;3.4;89.4;100720;;;;
2023/01/24 11:18:58;;;;;;;18.3;12.4;;;;;;;3.6;89.6;100710;;;;
2023/01/24 11:29:58;;;;;;;18.3;12.4;;;;;;;3.6;89.8;100700;;;;
2023/01/24 11:39:58;;;;;;;18.3;12.4;;;;;;;3.5;90;100690;;;;
2023/01/24 11:49:58;;;;;;;17.6;9.8;;;;;;;3.7;89.7;100680;;;;
2023/01/24 11:59:58;;;;;;;17.6;9.8;;;;;;;3.7;89.4;100680;;;;
2023/01/24 12:10:58;;;;;;;17.6;9.8;;;;;;;3.6;89.6;100680;;;;
2023/01/24 12:21:58;;;;;;;12.6;7.4;;;;;;;3.6;89.5;100670;;;;
2023/01/24 12:32:58;;;;;;;12.6;7.4;;;;;;;3.4;90.1;100670;;;;
2023/01/24 12:43:59;;;;;;;12.6;7.4;;;;;;;3.2;90.5;100660;;;;
2023/01/24 12:53:58;;;;;;;13;7.2;;;;;;;3.2;90.6;100680;;;;
2023/01/24 13:04:58;;;;;;;13;7.2;;;;;;;3;90.9;100690;;;;
2023/01/24 13:14:58;;;;;;;13;7.2;;;;;;;2.9;91.2;100690;;;;
2023/01/24 13:25:58;;;;;;;15.2;7.3;;;;;;;2.8;91.4;100700;;;;
2023/01/24 13:35:58;;;;;;;15.2;7.3;;;;;;;2.8;91.6;100700;;;;
2023/01/24 13:46:58;;;;;;;9.8;5.8;;;;;;;2.6;91.4;100710;;;;
2023/01/24 13:56:58;;;;;;;9.8;5.8;;;;;;;2.7;91.3;100730;;;;
2023/01/24 14:07:58;;;;;;;9.8;5.8;;;;;;;2.6;91.1;100730;;;;
2023/01/24 14:18:58;;;;;;;11;6.2;;;;;;;2.4;91;100740;;;;
2023/01/24 14:29:58;;;;;;;11;6.2;;;;;;;2.5;91.1;100740;;;;
2023/01/24 14:40:58;;;;;;;11;6.2;;;;;;;2.5;90.9;100750;;;;
2023/01/24 14:50:58;;;;;;;15.7;8.9;;;;;;;2.4;90.8;100760;;;;
2023/01/24 15:01:58;;;;;;;15.7;8.9;;;;;;;2.1;91.6;100780;;;;
2023/01/24 15:12:58;;;;;;;15.7;8.9;;;;;;;1.9;92.1;100780;;;;
2023/01/24 15:22:58;;;;;;;11.1;6.2;;;;;;;1.9;92.4;100780;;;;
2023/01/24 15:33:58;;;;;;;11.1;6.2;;;;;;;1.7;92.7;100790;;;;
2023/01/24 15:43:58;;;;;;;11.1;6.2;;;;;;;1.7;92.8;100790;;;;
2023/01/24 15:53:58;;;;;;;9.6;5.3;;;;;;;1.7;92.9;100790;;;;
2023/01/24 16:04:58;;;;;;;9.6;5.3;;;;;;;1.7;92.8;100780;;;;
2023/01/24 16:15:58;;;;;;;9.6;5.3;;;;;;;1.7;92.7;100780;;;;
2023/01/24 16:27:00;;;;;;;11.8;7.9;;;;;;;1.7;92.6;100790;;;;
2023/01/24 16:37:58;;;;;;;11.8;7.9;;;;;;;1.8;92.5;100790;;;;
2023/01/24 16:47:58;;;;;;;12.8;7.7;;;;;;;1.9;92.3;100790;;;;
2023/01/24 16:58:00;;;;;;;12.8;7.7;;;;;;;1.8;92.2;100790;;;;
2023/01/24 17:07:58;;;;;;;12.8;7.7;;;;;;;1.8;92.2;100770;;;;
2023/01/24 17:17:58;;;;;;;12.6;7.2;;;;;;;1.9;92.1;100760;;;;
2023/01/24 17:28:58;;;;;;;12.6;7.2;;;;;;;1.9;91.9;100770;;;;
2023/01/24 17:39:58;;;;;;;12.6;7.2;;;;;;;1.9;91.6;100760;;;;
2023/01/24 17:50:58;;;;;;;11.7;7.7;;;;;;;1.8;91.6;100760;;;;
2023/01/24 18:00:58;;;;;;;11.7;7.7;;;;;;;1.9;91.6;100750;;;;
2023/01/24 18:11:02;;;;;;;11.7;7.7;;;;;;;1.7;91.6;100750;;;;
2023/01/24 18:21:58;;;;;;;11.2;7.1;;;;;;;1.9;91.4;100760;;;;
2023/01/24 18:31:58;;;;;;;11.2;7.1;;;;;;;1.8;91;100750;;;;
2023/01/24 18:42:00;;;;;;;11.2;7.1;;;;;;;1.9;90.8;100740;;;;
2023/01/24 18:51:58;;;;;;;10;5.7;;;;;;;2;90.7;100730;;;;
2023/01/24 19:01:58;;;;;;;10;5.7;;;;;;;1.9;90.4;100730;;;;
2023/01/24 19:11:58;;;;;;;10;5.7;;;;;;;2;90.4;100740;;;;
2023/01/24 19:22:58;;;;;;;10.1;5.5;;;;;;;2;90;100740;;;;
2023/01/24 19:33:58;;;;;;;10.1;5.5;;;;;;;2;89.9;100740;;;;
2023/01/24 19:43:58;;;;;;;10.1;5.5;;;;;;;1.8;90;100760;;;;
2023/01/24 19:53:58;;;;;;;11.1;5.5;;;;;;;1.7;90.3;100770;;;;
2023/01/24 20:03:58;;;;;;;11.1;5.5;;;;;;;1.8;90.3;100780;;;;
2023/01/24 20:14:58;;;;;;;11.1;5.5;;;;;;;1.7;90.3;100770;;;;
2023/01/24 20:24:59;;;;;;;9;4.4;;;;;;;1.8;90.4;100770;;;;
2023/01/24 20:34:58;;;;;;;9;4.4;;;;;;;1.7;90.7;100760;;;;
2023/01/24 20:45:58;;;;;;;10.7;6.4;;;;;;;1.8;90.6;100750;;;;
2023/01/24 20:55:58;;;;;;;10.7;6.4;;;;;;;1.7;90.4;100750;;;;
2023/01/24 21:05:58;;;;;;;10.7;6.4;;;;;;;1.6;90.3;100750;;;;
2023/01/24 21:15:58;;;;;;;8.7;4.7;;;;;;;1.7;90.5;100740;;;;
2023/01/24 21:25:58;;;;;;;8.7;4.7;;;;;;;1.6;90.4;100740;;;;
2023/01/24 21:36:58;;;;;;;8.7;4.7;;;;;;;1.6;90.3;100740;;;;
2023/01/24 21:47:58;;;;;;;8.8;4.5;;;;;;;1.5;90.3;100720;;;;
2023/01/24 21:58:01;;;;;;;8.8;4.5;;;;;;;1.3;90.4;100720;;;;
2023/01/24 22:08:58;;;;;;;8.8;4.5;;;;;;;1.4;90.4;100730;;;;
2023/01/24 22:18:58;;;;;;;7.1;3.7;;;;;;;1.5;90.4;100730;;;;
2023/01/24 22:29:58;;;;;;;7.1;3.7;;;;;;;1.5;90.4;100740;;;;
2023/01/24 22:40:58;;;;;;;7.1;3.7;;;;;;;1.5;90.5;100740;;;;
2023/01/24 22:50:58;;;;;;;9;4.3;;;;;;;1.3;90.7;100740;;;;
2023/01/24 23:00:58;;;;;;;9;4.3;;;;;;;1.3;90.8;100740;;;;
2023/01/24 23:11:58;;;;;;;9;4.3;;;;;;;1.5;90.8;100740;;;;
2023/01/24 23:22:58;;;;;;;8.8;4.3;;;;;;;1.3;91.2;100740;;;;
2023/01/24 23:32:58;;;;;;;8.8;4.3;;;;;;;1.4;91;100740;;;;
2023/01/24 23:43:58;;;;;;;8.8;4.3;;;;;;;1.5;90.8;100730;;;;
2023/01/24 23:54:58;;;;;;;8.9;4.7;;;;;;;1.4;90.9;100720;;;;
